createdAt,value
2018-01-30T00:01:18.506Z,78.80
2018-01-30T00:03:46.062Z,79.08
2018-01-30T00:06:13.697Z,79.33
2018-01-30T00:08:41.199Z,79.29
2018-01-30T00:11:08.703Z,79.38
2018-01-30T00:13:36.232Z,79.18
2018-01-30T00:16:03.828Z,79.22
2018-01-30T00:18:31.558Z,78.98
2018-01-30T00:20:59.108Z,79.25
2018-01-30T00:23:26.637Z,78.86
2018-01-30T00:25:54.138Z,79.54
2018-01-30T00:28:21.653Z,79.54
2018-01-30T00:30:49.207Z,79.72
2018-01-30T00:33:16.788Z,79.79
2018-01-30T00:35:44.318Z,79.98
2018-01-30T00:38:11.876Z,80.09
2018-01-30T00:40:39.432Z,80.68
2018-01-30T00:43:06.947Z,80.29
2018-01-30T00:45:34.500Z,81.46
2018-01-30T00:48:02.055Z,81.83
2018-01-30T00:50:29.625Z,80.78
2018-01-30T00:52:57.427Z,80.69
2018-01-30T00:55:24.932Z,81.32
2018-01-30T00:57:52.441Z,80.97
2018-01-30T01:00:19.947Z,81.70
2018-01-30T01:02:47.551Z,82.36
2018-01-30T01:05:15.096Z,82.78
2018-01-30T01:07:42.626Z,82.96
2018-01-30T01:10:10.211Z,83.68
2018-01-30T01:12:37.764Z,83.49
2018-01-30T01:15:05.331Z,83.96
2018-01-30T01:17:32.840Z,84.13
2018-01-30T01:20:00.564Z,84.62
2018-01-30T01:22:28.111Z,84.16
2018-01-30T01:24:55.617Z,83.87
2018-01-30T01:27:23.122Z,83.56
2018-01-30T01:29:50.633Z,83.51
2018-01-30T01:32:18.127Z,83.94
2018-01-30T01:34:45.701Z,84.12
2018-01-30T01:37:13.217Z,84.01
2018-01-30T01:39:40.732Z,84.43
2018-01-30T01:42:08.296Z,84.68
2018-01-30T01:44:35.872Z,83.98
2018-01-30T01:47:03.376Z,83.79
2018-01-30T01:49:32.681Z,83.73
2018-01-30T01:52:00.211Z,83.63
2018-01-30T01:54:27.742Z,83.87
2018-01-30T01:56:55.377Z,83.60
2018-01-30T01:59:22.878Z,83.57
2018-01-30T02:01:50.382Z,84.41
2018-01-30T02:04:17.964Z,84.26
2018-01-30T02:06:45.611Z,84.96
2018-01-30T02:09:13.195Z,84.92
2018-01-30T02:11:40.936Z,85.34
2018-01-30T02:14:08.437Z,85.53
2018-01-30T02:16:35.998Z,85.65
2018-01-30T02:19:03.564Z,86.11
2018-01-30T02:21:31.072Z,86.38
2018-01-30T02:23:59.467Z,86.45
2018-01-30T02:26:27.042Z,87.25
2018-01-30T02:28:54.653Z,87.90
2018-01-30T02:31:22.167Z,88.35
2018-01-30T02:33:49.711Z,88.38
2018-01-30T02:36:17.226Z,88.89
2018-01-30T02:38:44.740Z,88.93
2018-01-30T02:41:12.352Z,88.95
2018-01-30T02:43:39.856Z,88.46
2018-01-30T02:46:07.379Z,88.18
2018-01-30T02:48:34.947Z,87.45
2018-01-30T02:51:02.483Z,88.40
2018-01-30T02:53:30.013Z,88.88
2018-01-30T02:55:57.513Z,88.88
2018-01-30T02:58:25.134Z,89.30
2018-01-30T03:00:52.735Z,88.56
2018-01-30T03:03:20.508Z,88.29
2018-01-30T03:05:49.232Z,88.61
2018-01-30T03:08:16.738Z,88.40
2018-01-30T03:10:44.411Z,88.90
2018-01-30T03:13:12.020Z,89.36
2018-01-30T03:15:39.514Z,89.79
2018-01-30T03:18:07.006Z,88.98
2018-01-30T03:20:34.632Z,88.16
2018-01-30T03:23:02.266Z,88.22
2018-01-30T03:25:29.762Z,88.89
2018-01-30T03:27:57.423Z,88.88
2018-01-30T03:30:25.032Z,88.70
2018-01-30T03:32:52.576Z,89.71
2018-01-30T03:35:20.511Z,90.13
2018-01-30T03:37:48.023Z,88.17
2018-01-30T03:40:15.613Z,88.74
2018-01-30T03:42:43.293Z,88.46
2018-01-30T03:45:10.794Z,89.42
2018-01-30T03:47:38.306Z,89.29
2018-01-30T03:50:05.792Z,89.83
2018-01-30T03:52:33.307Z,90.12
2018-01-30T03:55:00.937Z,89.87
2018-01-30T03:57:28.510Z,90.18
2018-01-30T03:59:55.999Z,90.12
2018-01-30T04:02:23.591Z,90.00
2018-01-30T04:04:51.096Z,89.93
2018-01-30T04:07:18.697Z,90.26
2018-01-30T04:09:46.191Z,90.72
2018-01-30T04:12:13.758Z,91.44
2018-01-30T04:14:41.391Z,91.28
2018-01-30T04:17:08.948Z,91.63
2018-01-30T04:19:36.582Z,91.94
2018-01-30T04:22:04.091Z,91.86
2018-01-30T04:24:31.705Z,92.14
2018-01-30T04:27:00.141Z,92.38
2018-01-30T04:29:27.654Z,92.61
2018-01-30T04:31:55.187Z,92.73
2018-01-30T04:34:22.782Z,93.07
2018-01-30T04:36:50.302Z,93.42
2018-01-30T04:39:17.808Z,93.74
2018-01-30T04:41:45.327Z,94.18
2018-01-30T04:44:12.831Z,93.76
2018-01-30T04:46:40.371Z,93.73
2018-01-30T04:49:07.908Z,93.58
2018-01-30T04:51:35.524Z,93.78
2018-01-30T04:54:03.032Z,93.68
2018-01-30T04:56:30.731Z,93.62
2018-01-30T04:58:58.586Z,93.79
2018-01-30T05:01:26.193Z,93.59
2018-01-30T05:03:53.873Z,93.46
2018-01-30T05:06:21.448Z,93.17
2018-01-30T05:08:49.018Z,93.48
2018-01-30T05:11:16.514Z,93.11
2018-01-30T05:13:44.048Z,93.87
2018-01-30T05:16:11.653Z,94.99
2018-01-30T05:18:39.166Z,94.66
2018-01-30T05:21:06.774Z,94.82
2018-01-30T05:23:34.387Z,94.29
2018-01-30T05:26:01.967Z,93.95
2018-01-30T05:28:29.688Z,93.04
2018-01-30T05:30:57.208Z,93.65
2018-01-30T05:33:24.793Z,93.54
2018-01-30T05:35:52.316Z,93.18
2018-01-30T05:38:19.914Z,93.48
2018-01-30T05:40:48.398Z,93.47
2018-01-30T05:43:16.082Z,93.37
2018-01-30T05:45:43.602Z,93.22
2018-01-30T05:48:11.145Z,93.57
2018-01-30T05:50:38.662Z,93.96
2018-01-30T05:53:06.173Z,94.25
2018-01-30T05:55:33.830Z,93.97
2018-01-30T05:58:01.344Z,94.26
2018-01-30T06:00:28.912Z,94.38
2018-01-30T06:02:56.530Z,94.12
2018-01-30T06:05:24.301Z,93.88
2018-01-30T06:07:51.946Z,93.99
2018-01-30T06:10:19.448Z,93.80
2018-01-30T06:12:46.966Z,93.76
2018-01-30T06:15:14.487Z,93.65
2018-01-30T06:17:42.159Z,93.08
2018-01-30T06:20:09.666Z,93.28
2018-01-30T06:22:37.292Z,93.24
2018-01-30T06:25:04.808Z,92.78
2018-01-30T06:27:32.372Z,93.17
2018-01-30T06:29:59.897Z,93.15
2018-01-30T06:32:27.571Z,93.69
2018-01-30T06:34:55.207Z,93.75
2018-01-30T06:37:22.783Z,93.65
2018-01-30T06:39:50.451Z,94.31
2018-01-30T06:42:17.958Z,94.61
2018-01-30T06:44:45.479Z,94.52
2018-01-30T06:47:13.088Z,94.39
2018-01-30T06:49:40.587Z,94.20
2018-01-30T06:52:08.091Z,93.71
2018-01-30T06:54:35.647Z,94.15
2018-01-30T06:57:03.141Z,93.93
2018-01-30T06:59:30.653Z,94.11
2018-01-30T07:01:58.182Z,94.27
2018-01-30T07:04:25.708Z,94.79
2018-01-30T07:06:53.383Z,94.53
2018-01-30T07:09:21.017Z,94.61
2018-01-30T07:11:48.528Z,94.52
2018-01-30T07:14:16.117Z,94.69
2018-01-30T07:16:43.707Z,95.51
2018-01-30T07:19:11.226Z,95.90
2018-01-30T07:21:38.938Z,95.55
2018-01-30T07:24:06.433Z,95.85
2018-01-30T07:26:33.948Z,95.75
2018-01-30T07:29:01.531Z,95.43
2018-01-30T07:31:29.117Z,95.12
2018-01-30T07:33:56.924Z,94.99
2018-01-30T07:36:24.458Z,95.42
2018-01-30T07:38:52.319Z,95.09
2018-01-30T07:41:19.867Z,94.98
2018-01-30T07:43:47.374Z,94.87
2018-01-30T07:46:14.888Z,94.84
2018-01-30T07:48:42.504Z,96.31
2018-01-30T07:51:10.058Z,95.86
2018-01-30T07:53:37.580Z,95.39
2018-01-30T07:56:05.111Z,94.74
2018-01-30T07:58:32.635Z,95.06
2018-01-30T08:01:00.148Z,94.87
2018-01-30T08:03:27.672Z,94.43
2018-01-30T08:05:55.203Z,94.23
2018-01-30T08:08:22.722Z,94.02
2018-01-30T08:10:50.334Z,93.18
2018-01-30T08:13:17.844Z,92.46
2018-01-30T08:15:45.432Z,93.01
2018-01-30T08:18:12.987Z,90.44
2018-01-30T08:20:40.502Z,91.30
2018-01-30T08:23:08.038Z,91.32
2018-01-30T08:25:35.562Z,90.55
2018-01-30T08:28:03.088Z,90.98
2018-01-30T08:30:30.662Z,90.33
2018-01-30T08:32:58.248Z,90.98
2018-01-30T08:35:25.757Z,91.17
2018-01-30T08:37:53.271Z,91.82
2018-01-30T08:40:20.804Z,91.59
2018-01-30T08:42:48.328Z,90.25
2018-01-30T08:45:15.952Z,91.42
2018-01-30T08:47:43.486Z,90.21
2018-01-30T08:50:11.137Z,91.49
2018-01-30T08:52:38.732Z,92.05
2018-01-30T08:55:06.277Z,93.14
2018-01-30T08:57:33.871Z,93.14
2018-01-30T09:00:01.408Z,93.70
2018-01-30T09:02:29.166Z,93.27
2018-01-30T09:04:56.871Z,93.92
2018-01-30T09:07:24.579Z,93.75
2018-01-30T09:09:52.134Z,92.63
2018-01-30T09:12:19.653Z,91.48
2018-01-30T09:14:47.168Z,91.54
2018-01-30T09:17:14.752Z,91.05
2018-01-30T09:19:42.403Z,91.32
2018-01-30T09:22:09.963Z,91.41
2018-01-30T09:24:37.533Z,92.97
2018-01-30T09:27:05.052Z,93.69
2018-01-30T09:29:32.742Z,93.65
2018-01-30T09:32:00.368Z,93.90
2018-01-30T09:34:28.009Z,94.15
2018-01-30T09:36:55.529Z,92.75
2018-01-30T09:39:23.067Z,92.07
2018-01-30T09:41:50.572Z,91.70
2018-01-30T09:44:18.097Z,92.25
2018-01-30T09:46:45.609Z,92.01
2018-01-30T09:49:13.184Z,91.58
2018-01-30T09:51:40.719Z,88.22
2018-01-30T09:54:08.240Z,89.76
2018-01-30T09:56:35.817Z,90.30
2018-01-30T09:59:03.342Z,91.62
2018-01-30T10:01:30.877Z,92.30
2018-01-30T10:03:58.799Z,92.18
2018-01-30T10:06:26.451Z,91.98
2018-01-30T10:08:54.182Z,91.59
2018-01-30T10:11:21.777Z,92.15
2018-01-30T10:13:49.404Z,92.63
2018-01-30T10:16:16.939Z,90.82
2018-01-30T10:18:44.549Z,88.84
2018-01-30T10:21:12.073Z,86.71
2018-01-30T10:23:39.663Z,87.97
2018-01-30T10:26:07.182Z,86.45
2018-01-30T10:28:34.983Z,87.06
2018-01-30T10:31:02.510Z,86.18
2018-01-30T10:33:30.132Z,86.32
2018-01-30T10:35:57.712Z,83.26
2018-01-30T10:38:25.225Z,84.27
2018-01-30T10:40:52.964Z,82.85
2018-01-30T10:43:20.551Z,81.00
2018-01-30T10:45:48.123Z,78.81
2018-01-30T10:48:15.733Z,77.05
2018-01-30T10:50:43.248Z,80.36
2018-01-30T10:53:10.757Z,82.44
2018-01-30T10:55:38.278Z,85.57
2018-01-30T10:58:05.845Z,85.98
2018-01-30T11:00:33.483Z,86.84
2018-01-30T11:03:01.004Z,88.40
2018-01-30T11:05:28.528Z,88.26
2018-01-30T11:07:56.126Z,88.03
2018-01-30T11:10:23.689Z,88.79
2018-01-30T11:12:51.263Z,88.63
2018-01-30T11:15:18.781Z,87.53
2018-01-30T11:17:46.310Z,83.31
2018-01-30T11:20:13.803Z,80.39
2018-01-30T11:22:41.372Z,76.16
2018-01-30T11:25:08.984Z,75.37
2018-01-30T11:27:36.512Z,75.76
2018-01-30T11:30:04.189Z,77.15
2018-01-30T11:32:31.828Z,75.79
2018-01-30T11:34:59.698Z,68.83
2018-01-30T11:37:27.199Z,66.45
2018-01-30T11:39:54.707Z,64.95
2018-01-30T11:42:22.234Z,60.71
2018-01-30T11:44:49.827Z,50.35
2018-01-30T11:47:17.624Z,46.40
2018-01-30T11:49:45.254Z,43.84
2018-01-30T11:52:13.008Z,44.55
2018-01-30T11:54:40.684Z,54.68
2018-01-30T11:57:08.303Z,58.58
2018-01-30T11:59:35.957Z,61.03
2018-01-30T12:02:03.643Z,69.23
2018-01-30T12:04:31.159Z,71.85
2018-01-30T12:06:58.769Z,79.75
2018-01-30T12:09:26.321Z,76.62
2018-01-30T12:11:53.873Z,77.55
2018-01-30T12:14:21.406Z,82.96
2018-01-30T12:16:48.909Z,83.03
2018-01-30T12:19:16.532Z,83.73
2018-01-30T12:21:44.034Z,83.37
2018-01-30T12:24:11.704Z,85.48
2018-01-30T12:26:39.264Z,84.47
2018-01-30T12:29:07.029Z,86.32
2018-01-30T12:31:34.691Z,86.57
2018-01-30T12:34:02.197Z,87.01
2018-01-30T12:36:29.824Z,87.80
2018-01-30T12:38:57.427Z,87.51
2018-01-30T12:41:25.040Z,89.09
2018-01-30T12:43:52.572Z,89.73
2018-01-30T12:46:20.182Z,88.14
2018-01-30T12:48:48.087Z,87.79
2018-01-30T12:51:15.621Z,88.60
2018-01-30T12:53:43.168Z,90.62
2018-01-30T12:56:10.794Z,90.19
2018-01-30T12:58:38.337Z,90.81
2018-01-30T13:01:05.864Z,88.00
2018-01-30T13:03:33.523Z,87.27
2018-01-30T13:06:01.149Z,88.89
2018-01-30T13:08:28.673Z,89.79
2018-01-30T13:10:56.282Z,89.52
2018-01-30T13:13:24.002Z,88.33
2018-01-30T13:15:51.654Z,85.35
2018-01-30T13:18:19.222Z,84.82
2018-01-30T13:20:46.783Z,85.10
2018-01-30T13:23:14.345Z,84.59
2018-01-30T13:25:42.008Z,85.71
2018-01-30T13:28:09.524Z,85.42
2018-01-30T13:30:37.060Z,83.18
2018-01-30T13:33:04.667Z,82.26
2018-01-30T13:35:32.189Z,84.68
2018-01-30T13:37:59.783Z,84.19
2018-01-30T13:40:27.305Z,85.20
2018-01-30T13:42:55.017Z,84.84
2018-01-30T13:45:22.707Z,84.20
2018-01-30T13:47:50.352Z,86.45
2018-01-30T13:50:18.018Z,85.72
2018-01-30T13:52:45.684Z,84.42
2018-01-30T13:55:13.283Z,84.46
2018-01-30T13:57:40.810Z,85.13
2018-01-30T14:00:08.395Z,84.98
2018-01-30T14:02:35.946Z,86.53
2018-01-30T14:05:03.537Z,85.61
2018-01-30T14:07:31.030Z,84.62
2018-01-30T14:09:58.797Z,83.78
2018-01-30T14:12:26.364Z,83.22
2018-01-30T14:14:53.890Z,84.13
2018-01-30T14:17:21.499Z,84.28
2018-01-30T14:19:49.012Z,83.12
2018-01-30T14:22:16.539Z,82.08
2018-01-30T14:24:44.074Z,81.17
2018-01-30T14:27:11.593Z,82.25
2018-01-30T14:29:39.086Z,81.46
2018-01-30T14:32:07.316Z,84.49
2018-01-30T14:34:34.838Z,85.80
2018-01-30T14:37:02.475Z,87.61
2018-01-30T14:39:30.070Z,87.71
2018-01-30T14:41:57.578Z,88.33
2018-01-30T14:44:25.148Z,87.70
2018-01-30T14:46:52.750Z,87.52
2018-01-30T14:49:20.270Z,89.05
2018-01-30T14:51:47.789Z,89.35
2018-01-30T14:54:15.315Z,88.30
2018-01-30T14:56:42.984Z,90.24
2018-01-30T14:59:10.486Z,89.32
2018-01-30T15:01:38.165Z,89.87
2018-01-30T15:04:05.720Z,90.38
2018-01-30T15:06:33.299Z,90.69
2018-01-30T15:09:00.830Z,90.89
2018-01-30T15:11:28.398Z,91.63
2018-01-30T15:13:55.980Z,90.50
2018-01-30T15:16:23.725Z,90.80
2018-01-30T15:18:51.248Z,91.16
2018-01-30T15:21:18.909Z,91.17
2018-01-30T15:23:46.444Z,91.45
2018-01-30T15:26:13.990Z,91.64
2018-01-30T15:28:41.669Z,89.89
2018-01-30T15:31:09.237Z,91.79
2018-01-30T15:33:36.959Z,92.49
2018-01-30T15:36:04.628Z,91.47
2018-01-30T15:38:32.269Z,90.94
2018-01-30T15:40:59.992Z,91.82
2018-01-30T15:43:27.564Z,92.73
2018-01-30T15:45:55.101Z,90.65
2018-01-30T15:48:22.725Z,89.54
2018-01-30T15:50:50.295Z,90.86
2018-01-30T15:53:17.895Z,91.45
2018-01-30T15:55:45.417Z,92.02
2018-01-30T15:58:13.123Z,92.06
2018-01-30T16:00:40.724Z,92.58
2018-01-30T16:03:08.264Z,90.75
2018-01-30T16:05:35.820Z,91.10
2018-01-30T16:08:03.486Z,92.56
2018-01-30T16:10:31.117Z,92.44
2018-01-30T16:12:58.779Z,93.63
2018-01-30T16:15:26.322Z,92.73
2018-01-30T16:17:53.921Z,93.88
2018-01-30T16:20:21.554Z,95.06
2018-01-30T16:22:49.103Z,95.55
2018-01-30T16:25:16.661Z,95.69
2018-01-30T16:27:44.207Z,95.73
2018-01-30T16:30:11.867Z,95.66
2018-01-30T16:32:39.414Z,95.86
2018-01-30T16:35:06.952Z,96.29
2018-01-30T16:37:34.483Z,96.49
2018-01-30T16:40:01.998Z,96.58
2018-01-30T16:42:29.529Z,96.29
2018-01-30T16:44:57.203Z,96.24
2018-01-30T16:47:24.730Z,97.02
2018-01-30T16:49:52.284Z,97.20
2018-01-30T16:52:19.801Z,97.05
2018-01-30T16:54:47.330Z,96.82
2018-01-30T16:57:14.891Z,96.40
2018-01-30T16:59:42.417Z,95.83
2018-01-30T17:02:10.035Z,95.32
2018-01-30T17:04:37.733Z,95.23
2018-01-30T17:07:05.328Z,95.90
2018-01-30T17:09:32.859Z,95.82
2018-01-30T17:12:00.437Z,95.56
2018-01-30T17:14:28.079Z,95.87
2018-01-30T17:16:55.738Z,95.79
2018-01-30T17:19:23.265Z,96.27
2018-01-30T17:21:50.789Z,96.27
2018-01-30T17:24:18.322Z,97.39
2018-01-30T17:26:45.875Z,98.06
2018-01-30T17:29:13.494Z,97.96
2018-01-30T17:31:41.018Z,97.72
2018-01-30T17:34:08.618Z,97.71
2018-01-30T17:36:36.183Z,97.60
2018-01-30T17:39:03.755Z,97.44
2018-01-30T17:41:31.275Z,97.45
2018-01-30T17:43:59.275Z,97.54
2018-01-30T17:46:27.003Z,97.66
2018-01-30T17:48:54.550Z,97.24
2018-01-30T17:51:22.165Z,97.30
2018-01-30T17:53:49.725Z,96.87
2018-01-30T17:56:17.355Z,96.95
2018-01-30T17:58:44.885Z,96.68
2018-01-30T18:01:12.520Z,96.78
2018-01-30T18:03:40.079Z,97.04
2018-01-30T18:06:07.640Z,97.36
2018-01-30T18:08:35.180Z,97.53
2018-01-30T18:11:02.719Z,97.76
2018-01-30T18:13:30.295Z,97.48
2018-01-30T18:15:57.814Z,97.54
2018-01-30T18:18:25.529Z,97.12
2018-01-30T18:20:53.070Z,97.06
2018-01-30T18:23:20.725Z,96.94
2018-01-30T18:25:48.376Z,97.06
2018-01-30T18:28:16.045Z,97.33
2018-01-30T18:30:43.659Z,97.38
2018-01-30T18:33:11.366Z,97.35
2018-01-30T18:35:38.906Z,97.73
2018-01-30T18:38:06.528Z,97.56
2018-01-30T18:40:34.180Z,98.42
2018-01-30T18:43:01.718Z,98.60
2018-01-30T18:45:29.285Z,98.40
2018-01-30T18:47:56.884Z,98.27
2018-01-30T18:50:24.558Z,97.88
2018-01-30T18:52:52.240Z,97.67
2018-01-30T18:55:19.895Z,97.37
2018-01-30T18:57:47.548Z,97.33
2018-01-30T19:00:15.154Z,98.31
2018-01-30T19:02:42.761Z,98.12
2018-01-30T19:05:10.343Z,98.01
2018-01-30T19:07:37.992Z,97.56
2018-01-30T19:10:05.544Z,97.27
2018-01-30T19:12:33.173Z,97.14
2018-01-30T19:15:00.844Z,97.17
2018-01-30T19:17:28.384Z,97.12
2018-01-30T19:19:55.990Z,97.92
2018-01-30T19:22:23.536Z,98.01
2018-01-30T19:24:51.150Z,97.60
2018-01-30T19:27:18.770Z,97.62
2018-01-30T19:29:46.300Z,97.86
2018-01-30T19:32:13.893Z,98.88
2018-01-30T19:34:41.469Z,98.82
2018-01-30T19:37:09.008Z,99.18
2018-01-30T19:39:36.775Z,99.33
2018-01-30T19:42:04.345Z,99.10
2018-01-30T19:44:31.902Z,99.00
2018-01-30T19:46:59.549Z,98.91
2018-01-30T19:49:27.084Z,98.38
2018-01-30T19:51:54.630Z,97.82
2018-01-30T19:54:22.205Z,98.00
2018-01-30T19:56:49.749Z,97.98
2018-01-30T19:59:17.510Z,98.16
2018-01-30T20:01:45.048Z,98.02
2018-01-30T20:04:12.620Z,98.57
2018-01-30T20:06:40.137Z,99.01
2018-01-30T20:09:07.747Z,98.78
2018-01-30T20:11:35.271Z,98.53
2018-01-30T20:14:02.815Z,98.46
2018-01-30T20:16:30.351Z,98.35
2018-01-30T20:18:57.881Z,97.84
2018-01-30T20:21:25.425Z,97.77
2018-01-30T20:23:52.983Z,97.65
2018-01-30T20:26:21.202Z,97.71
2018-01-30T20:28:48.738Z,98.23
2018-01-30T20:31:16.305Z,98.59
2018-01-30T20:33:43.842Z,98.67
2018-01-30T20:36:11.490Z,98.51
2018-01-30T20:38:39.239Z,98.23
2018-01-30T20:41:06.765Z,98.80
2018-01-30T20:43:34.394Z,98.83
2018-01-30T20:46:02.061Z,98.67
2018-01-30T20:48:29.718Z,98.58
2018-01-30T20:50:57.361Z,98.59
2018-01-30T20:53:24.929Z,98.63
2018-01-30T20:55:52.444Z,98.68
2018-01-30T20:58:19.954Z,98.68
2018-01-30T21:00:47.480Z,98.47
2018-01-30T21:03:15.018Z,98.42
2018-01-30T21:05:42.578Z,98.69
2018-01-30T21:08:10.193Z,98.79
2018-01-30T21:10:37.864Z,99.18
2018-01-30T21:13:05.398Z,99.11
2018-01-30T21:15:32.924Z,99.38
2018-01-30T21:18:00.570Z,99.70
2018-01-30T21:20:28.375Z,99.69
2018-01-30T21:22:55.974Z,99.68
2018-01-30T21:25:23.579Z,99.53
2018-01-30T21:27:51.313Z,99.27
2018-01-30T21:30:18.934Z,99.18
2018-01-30T21:32:46.464Z,99.03
2018-01-30T21:35:14.059Z,99.76
2018-01-30T21:37:41.652Z,99.86
2018-01-30T21:40:10.019Z,99.95
2018-01-30T21:42:37.659Z,99.99
2018-01-30T21:45:05.483Z,99.73
2018-01-30T21:47:33.337Z,99.54
2018-01-30T21:50:00.924Z,99.47
2018-01-30T21:52:28.504Z,99.60
2018-01-30T21:54:56.039Z,99.41
2018-01-30T21:57:23.588Z,99.21
2018-01-30T21:59:51.147Z,99.04
2018-01-30T22:02:18.720Z,99.05
2018-01-30T22:04:46.360Z,99.24
2018-01-30T22:07:14.807Z,99.17
2018-01-30T22:09:42.615Z,99.30
2018-01-30T22:12:10.231Z,99.31
2018-01-30T22:14:37.948Z,99.31
2018-01-30T22:17:05.590Z,99.30
2018-01-30T22:19:33.218Z,98.99
2018-01-30T22:22:00.809Z,99.33
2018-01-30T22:24:28.365Z,99.42
2018-01-30T22:26:56.020Z,99.47
2018-01-30T22:29:23.583Z,98.98
2018-01-30T22:31:51.313Z,98.91
2018-01-30T22:34:18.959Z,99.15
2018-01-30T22:36:46.598Z,99.27
2018-01-30T22:39:14.169Z,99.61
2018-01-30T22:41:41.889Z,99.46
2018-01-30T22:44:09.497Z,99.44
2018-01-30T22:46:37.274Z,99.56
